Time;durP1;ratioP1;P1;durP2;ratioP2;P2;SDS_P1;SDS_P2;PMS_P1;PMS_P2;Temp;Humidity;BMP_temperature;BMP_pressure;BME280_temperature;BME280_humidity;BME280_pressure;Samples;Min_cycle;Max_cycle;Signal;HPM_P1;HPM_P2
2022/12/09 00:02:11;;;;;;;40.97;20.20;;;;;;;;;;5080288;28;20059;-84
2022/12/09 00:04:37;;;;;;;35.63;19.20;;;;;;;;;;5069870;28;20025;-84
2022/12/09 00:07:03;;;;;;;35.17;18.75;;;;;;;;;;5083939;28;20029;-84
2022/12/09 00:09:29;;;;;;;36.47;19.05;;;;;;;;;;5072483;28;20048;-84
2022/12/09 00:11:55;;;;;;;35.15;18.45;;;;;;;;;;5075201;28;20085;-84
2022/12/09 00:14:21;;;;;;;29.98;17.95;;;;;;;;;;5053243;28;20024;-83
2022/12/09 00:16:47;;;;;;;33.45;17.70;;;;;;;;;;5067691;28;20028;-84
2022/12/09 00:19:13;;;;;;;37.10;18.70;;;;;;;;;;5087130;28;20024;-83
2022/12/09 00:21:41;;;;;;;31.60;18.08;;;;;;;;;;5065995;28;20021;-85
2022/12/09 00:24:09;;;;;;;36.17;17.38;;;;;;;;;;5067453;28;20024;-84
2022/12/09 00:26:35;;;;;;;33.80;18.83;;;;;;;;;;5081081;28;20051;-84
2022/12/09 00:29:01;;;;;;;32.22;18.40;;;;;;;;;;5069601;28;20028;-84
2022/12/09 00:31:29;;;;;;;33.70;18.58;;;;;;;;;;5076292;28;20475;-84
2022/12/09 00:33:56;;;;;;;32.97;18.25;;;;;;;;;;5075466;28;20024;-84
2022/12/09 00:36:23;;;;;;;36.53;19.23;;;;;;;;;;5052857;28;20017;-84
2022/12/09 00:38:49;;;;;;;35.92;18.63;;;;;;;;;;5066406;28;20029;-84
2022/12/09 00:41:16;;;;;;;37.25;20.38;;;;;;;;;;5051962;28;20020;-85
2022/12/09 00:43:43;;;;;;;34.97;19.52;;;;;;;;;;5069232;28;20499;-84
2022/12/09 00:46:09;;;;;;;35.00;18.05;;;;;;;;;;5049201;28;20076;-84
2022/12/09 00:48:38;;;;;;;35.25;20.10;;;;;;;;;;5061767;28;20036;-84
2022/12/09 00:51:05;;;;;;;37.20;18.40;;;;;;;;;;5060260;28;20096;-83
2022/12/09 00:53:31;;;;;;;34.97;18.15;;;;;;;;;;5075371;28;20021;-84
2022/12/09 00:55:57;;;;;;;30.05;17.08;;;;;;;;;;5048212;28;20044;-84
2022/12/09 00:58:23;;;;;;;33.60;17.92;;;;;;;;;;5065930;28;20049;-85
2022/12/09 01:00:49;;;;;;;33.45;17.05;;;;;;;;;;5071845;28;20016;-83
2022/12/09 01:03:16;;;;;;;36.03;18.77;;;;;;;;;;5066218;28;20025;-84
2022/12/09 01:05:42;;;;;;;31.92;16.35;;;;;;;;;;5081448;28;20092;-84
2022/12/09 01:08:08;;;;;;;29.73;16.83;;;;;;;;;;5070335;28;20039;-84
2022/12/09 01:10:35;;;;;;;33.30;17.48;;;;;;;;;;5085848;28;20031;-84
2022/12/09 01:13:01;;;;;;;35.60;17.48;;;;;;;;;;5056756;28;20055;-85
2022/12/09 01:15:27;;;;;;;31.48;16.27;;;;;;;;;;5057993;28;20024;-84
2022/12/09 01:17:53;;;;;;;30.45;16.55;;;;;;;;;;5070547;28;20040;-84
2022/12/09 01:20:19;;;;;;;40.03;20.58;;;;;;;;;;5068480;28;20017;-84
2022/12/09 01:22:45;;;;;;;37.42;21.45;;;;;;;;;;5069269;28;20024;-84
2022/12/09 01:25:11;;;;;;;32.88;17.77;;;;;;;;;;5066941;28;20043;-85
2022/12/09 01:27:37;;;;;;;35.75;20.00;;;;;;;;;;5079080;28;20074;-84
2022/12/09 01:30:04;;;;;;;33.42;17.58;;;;;;;;;;5085922;28;20021;-84
2022/12/09 01:32:30;;;;;;;33.67;17.08;;;;;;;;;;5082578;28;20036;-84
2022/12/09 01:34:56;;;;;;;37.30;18.48;;;;;;;;;;5050951;28;20063;-84
2022/12/09 01:37:22;;;;;;;30.52;18.25;;;;;;;;;;5051275;28;20033;-84
2022/12/09 01:39:48;;;;;;;32.25;17.15;;;;;;;;;;5059194;28;20070;-85
2022/12/09 01:42:21;;;;;;;33.10;18.70;;;;;;;;;;5074107;28;20009;-84
2022/12/09 01:45:08;;;;;;;32.60;18.00;;;;;;;;;;5069062;28;20029;-84
2022/12/09 01:47:34;;;;;;;32.38;16.58;;;;;;;;;;5067420;28;20033;-86
2022/12/09 01:50:00;;;;;;;37.65;16.80;;;;;;;;;;5068450;28;20043;-84
2022/12/09 01:52:26;;;;;;;35.83;18.20;;;;;;;;;;5049390;28;20036;-84
2022/12/09 01:54:52;;;;;;;36.53;18.60;;;;;;;;;;5082881;28;20029;-83
2022/12/09 01:57:19;;;;;;;35.90;19.77;;;;;;;;;;5072060;28;20119;-83
2022/12/09 01:59:45;;;;;;;35.63;19.85;;;;;;;;;;5073397;28;20028;-84
2022/12/09 02:02:14;;;;;;;36.83;19.88;;;;;;;;;;5060172;28;20118;-84
2022/12/09 02:04:41;;;;;;;35.95;19.08;;;;;;;;;;5069296;28;20085;-85
2022/12/09 02:07:09;;;;;;;41.50;20.50;;;;;;;;;;5081315;28;20127;-84
2022/12/09 02:09:35;;;;;;;41.28;21.33;;;;;;;;;;5087479;28;20024;-84
2022/12/09 02:12:08;;;;;;;35.42;19.08;;;;;;;;;;5075344;28;20028;-85
2022/12/09 02:14:43;;;;;;;37.60;19.02;;;;;;;;;;5051303;28;20041;-84
2022/12/09 02:17:12;;;;;;;37.58;20.40;;;;;;;;;;5085737;28;20030;-85
2022/12/09 02:19:54;;;;;;;36.88;20.25;;;;;;;;;;5068894;28;20558;-84
2022/12/09 02:22:24;;;;;;;41.50;20.25;;;;;;;;;;5051060;28;20115;-84
2022/12/09 02:24:50;;;;;;;35.65;19.42;;;;;;;;;;5055078;28;20052;-83
2022/12/09 02:27:36;;;;;;;40.97;20.38;;;;;;;;;;5070410;28;20359;-85
2022/12/09 02:30:11;;;;;;;36.33;19.38;;;;;;;;;;5055420;28;20510;-83
2022/12/09 02:32:49;;;;;;;37.40;20.20;;;;;;;;;;5078630;28;20025;-82
2022/12/09 02:35:24;;;;;;;37.47;19.75;;;;;;;;;;5094806;28;20044;-83
2022/12/09 02:37:53;;;;;;;35.75;18.73;;;;;;;;;;5075087;28;20032;-85
2022/12/09 02:40:24;;;;;;;36.72;20.13;;;;;;;;;;5070886;28;20024;-84
2022/12/09 02:42:50;;;;;;;36.88;20.45;;;;;;;;;;5086256;28;20028;-83
2022/12/09 02:45:17;;;;;;;33.78;19.02;;;;;;;;;;5065647;28;20037;-84
2022/12/09 02:47:47;;;;;;;39.45;19.80;;;;;;;;;;5058578;28;20037;-84
2022/12/09 02:50:14;;;;;;;35.63;19.90;;;;;;;;;;5050649;28;20394;-84
2022/12/09 02:52:42;;;;;;;38.22;20.27;;;;;;;;;;5067926;28;20040;-84
2022/12/09 02:55:09;;;;;;;39.67;22.42;;;;;;;;;;5052560;28;20032;-83
2022/12/09 02:57:36;;;;;;;38.55;19.88;;;;;;;;;;5053492;28;20024;-84
2022/12/09 03:00:04;;;;;;;38.08;21.45;;;;;;;;;;5073983;28;20028;-83
2022/12/09 03:02:57;;;;;;;37.03;20.20;;;;;;;;;;5053195;28;20101;-84
2022/12/09 03:05:26;;;;;;;39.75;20.50;;;;;;;;;;5065229;28;20545;-82
2022/12/09 03:08:00;;;;;;;34.75;19.77;;;;;;;;;;5055623;28;20096;-84
2022/12/09 03:10:44;;;;;;;36.25;18.92;;;;;;;;;;5070270;28;20028;-84
2022/12/09 03:13:17;;;;;;;38.58;19.85;;;;;;;;;;5062982;28;20043;-83
2022/12/09 03:15:47;;;;;;;38.55;21.15;;;;;;;;;;5057129;28;20482;-84
2022/12/09 03:18:16;;;;;;;36.90;18.02;;;;;;;;;;5056899;28;20071;-83
2022/12/09 03:20:43;;;;;;;36.30;19.77;;;;;;;;;;5062342;28;20024;-84
2022/12/09 03:23:12;;;;;;;35.78;19.52;;;;;;;;;;5068103;28;20020;-84
2022/12/09 03:25:40;;;;;;;39.90;19.48;;;;;;;;;;5085275;28;20033;-84
2022/12/09 03:28:22;;;;;;;37.97;19.30;;;;;;;;;;5074514;28;20036;-84
2022/12/09 03:30:48;;;;;;;37.95;19.73;;;;;;;;;;5071583;28;20035;-83
2022/12/09 03:33:16;;;;;;;35.05;19.83;;;;;;;;;;5073560;28;20025;-84
2022/12/09 03:35:44;;;;;;;37.00;19.17;;;;;;;;;;5066208;28;20030;-83
2022/12/09 03:38:11;;;;;;;37.70;20.20;;;;;;;;;;5066987;28;20040;-83
2022/12/09 03:40:37;;;;;;;35.45;19.30;;;;;;;;;;5069155;28;20069;-83
2022/12/09 03:43:07;;;;;;;39.85;20.50;;;;;;;;;;5055859;28;20032;-84
2022/12/09 03:45:33;;;;;;;35.47;18.77;;;;;;;;;;5064022;28;20045;-83
2022/12/09 03:48:00;;;;;;;36.17;20.23;;;;;;;;;;5063192;28;20029;-83
2022/12/09 03:50:30;;;;;;;34.67;19.30;;;;;;;;;;5051064;28;20024;-83
2022/12/09 03:52:59;;;;;;;41.22;20.45;;;;;;;;;;5052993;28;20025;-83
2022/12/09 03:55:29;;;;;;;34.53;18.08;;;;;;;;;;5066219;28;20025;-83
2022/12/09 03:57:57;;;;;;;41.38;20.77;;;;;;;;;;5049685;28;20025;-83
2022/12/09 04:00:23;;;;;;;38.30;19.85;;;;;;;;;;5081967;28;20016;-82
2022/12/09 04:02:49;;;;;;;37.47;20.27;;;;;;;;;;5076598;28;20050;-83
2022/12/09 04:05:15;;;;;;;37.38;19.65;;;;;;;;;;5047694;28;20021;-83
2022/12/09 04:07:42;;;;;;;37.10;18.98;;;;;;;;;;5085390;28;20035;-82
2022/12/09 04:10:08;;;;;;;42.47;21.25;;;;;;;;;;5084775;28;20474;-83
2022/12/09 04:12:34;;;;;;;35.08;19.45;;;;;;;;;;5080080;28;20508;-82
2022/12/09 04:15:00;;;;;;;34.08;17.02;;;;;;;;;;5055133;28;20098;-83
2022/12/09 04:17:26;;;;;;;33.65;18.27;;;;;;;;;;5064177;28;20036;-83
2022/12/09 04:19:52;;;;;;;36.00;18.05;;;;;;;;;;5059581;28;20018;-83
2022/12/09 04:22:18;;;;;;;33.83;16.45;;;;;;;;;;5074524;28;20028;-83
2022/12/09 04:24:44;;;;;;;36.38;19.50;;;;;;;;;;5061954;28;20028;-83
2022/12/09 04:27:11;;;;;;;33.22;18.25;;;;;;;;;;5063629;28;20032;-83
2022/12/09 04:29:38;;;;;;;35.90;18.75;;;;;;;;;;5063525;28;20016;-83
2022/12/09 04:32:04;;;;;;;39.08;19.63;;;;;;;;;;5076843;28;20418;-82
2022/12/09 04:34:31;;;;;;;32.40;18.15;;;;;;;;;;5084239;28;20052;-83
2022/12/09 04:36:57;;;;;;;35.90;19.48;;;;;;;;;;5081221;28;20075;-83
2022/12/09 04:39:23;;;;;;;40.30;19.92;;;;;;;;;;5051801;28;20033;-82
2022/12/09 04:41:49;;;;;;;35.15;17.52;;;;;;;;;;5065720;28;20025;-83
2022/12/09 04:44:15;;;;;;;32.50;18.05;;;;;;;;;;5070489;28;20029;-82
2022/12/09 04:46:41;;;;;;;35.60;18.35;;;;;;;;;;5078274;28;20049;-82
2022/12/09 04:49:08;;;;;;;30.30;16.15;;;;;;;;;;5080434;28;20124;-83
2022/12/09 04:51:34;;;;;;;30.40;18.00;;;;;;;;;;5072824;28;20288;-82
2022/12/09 04:54:00;;;;;;;34.30;17.20;;;;;;;;;;5065761;28;20029;-83
2022/12/09 04:56:26;;;;;;;34.20;17.35;;;;;;;;;;5075352;28;20032;-84
2022/12/09 04:58:51;;;;;;;36.97;17.67;;;;;;;;;;5075496;28;20033;-83
2022/12/09 05:01:19;;;;;;;39.03;20.45;;;;;;;;;;5059869;28;20019;-83
2022/12/09 05:03:49;;;;;;;37.28;19.27;;;;;;;;;;5085291;28;20029;-83
2022/12/09 05:06:15;;;;;;;35.35;19.33;;;;;;;;;;5057881;28;20029;-83
2022/12/09 05:08:41;;;;;;;36.67;18.02;;;;;;;;;;5059919;28;20029;-83
2022/12/09 05:11:07;;;;;;;37.70;18.88;;;;;;;;;;5050671;28;20075;-83
2022/12/09 05:13:33;;;;;;;39.05;20.98;;;;;;;;;;5077549;28;20052;-83
2022/12/09 05:16:00;;;;;;;31.13;18.23;;;;;;;;;;5075902;28;20037;-83
2022/12/09 05:18:26;;;;;;;39.60;20.80;;;;;;;;;;5049043;28;20082;-83
2022/12/09 05:20:53;;;;;;;37.95;20.67;;;;;;;;;;5054761;28;20025;-84
2022/12/09 05:23:19;;;;;;;40.38;19.85;;;;;;;;;;5067212;28;20025;-83
2022/12/09 05:25:45;;;;;;;35.97;19.40;;;;;;;;;;5067812;28;20063;-83
2022/12/09 05:28:11;;;;;;;43.05;20.42;;;;;;;;;;5069851;28;20033;-82
2022/12/09 05:30:37;;;;;;;36.38;19.70;;;;;;;;;;5076891;28;20075;-82
2022/12/09 05:33:03;;;;;;;39.53;18.83;;;;;;;;;;5062579;28;20048;-83
2022/12/09 05:35:29;;;;;;;32.97;18.13;;;;;;;;;;5074402;28;20391;-83
2022/12/09 05:37:55;;;;;;;38.72;17.98;;;;;;;;;;5072882;28;20029;-83
2022/12/09 05:40:22;;;;;;;32.42;17.67;;;;;;;;;;5073908;28;20023;-84
2022/12/09 05:42:48;;;;;;;37.08;19.08;;;;;;;;;;5075663;28;20041;-83
2022/12/09 05:45:14;;;;;;;45.50;19.80;;;;;;;;;;5073663;28;20029;-83
2022/12/09 05:47:40;;;;;;;41.65;19.48;;;;;;;;;;5058055;28;20037;-83
2022/12/09 05:50:08;;;;;;;38.83;19.80;;;;;;;;;;5080699;28;20067;-83
2022/12/09 05:52:34;;;;;;;35.40;17.02;;;;;;;;;;5049201;28;20025;-83
2022/12/09 05:55:02;;;;;;;34.95;17.75;;;;;;;;;;5086020;28;20075;-82
2022/12/09 05:57:28;;;;;;;39.03;18.65;;;;;;;;;;5066028;28;20025;-83
2022/12/09 05:59:54;;;;;;;35.85;18.52;;;;;;;;;;5074233;28;20072;-83
2022/12/09 06:02:20;;;;;;;33.03;16.08;;;;;;;;;;5083677;28;20037;-83
2022/12/09 06:04:46;;;;;;;30.85;15.02;;;;;;;;;;5050321;28;20028;-83
2022/12/09 06:07:12;;;;;;;33.90;16.17;;;;;;;;;;5072975;28;20070;-82
2022/12/09 06:09:39;;;;;;;32.40;17.05;;;;;;;;;;5065041;28;20035;-84
2022/12/09 06:12:05;;;;;;;33.60;15.25;;;;;;;;;;5062875;28;20115;-83
2022/12/09 06:14:31;;;;;;;26.23;15.48;;;;;;;;;;5075289;28;20079;-83
2022/12/09 06:16:57;;;;;;;28.52;16.45;;;;;;;;;;5072573;28;20024;-84
2022/12/09 06:19:23;;;;;;;32.50;14.95;;;;;;;;;;5059447;28;20024;-84
2022/12/09 06:21:49;;;;;;;29.88;16.77;;;;;;;;;;5071736;28;20488;-83
2022/12/09 06:24:15;;;;;;;33.13;15.77;;;;;;;;;;5072235;28;20031;-83
2022/12/09 06:26:41;;;;;;;28.40;14.25;;;;;;;;;;5050939;28;20029;-82
2022/12/09 06:29:07;;;;;;;25.00;13.95;;;;;;;;;;5047639;28;20020;-83
2022/12/09 06:31:33;;;;;;;28.30;13.30;;;;;;;;;;5065293;28;20058;-82
2022/12/09 06:33:59;;;;;;;22.17;11.07;;;;;;;;;;5057715;28;20443;-83
2022/12/09 06:36:26;;;;;;;26.02;11.93;;;;;;;;;;5068753;28;20044;-84
2022/12/09 06:38:52;;;;;;;28.05;12.68;;;;;;;;;;5060444;28;20032;-83
2022/12/09 06:41:18;;;;;;;21.30;10.93;;;;;;;;;;5083248;28;20017;-83
2022/12/09 06:43:45;;;;;;;25.85;12.82;;;;;;;;;;5072994;28;20505;-83
2022/12/09 06:46:12;;;;;;;21.42;10.98;;;;;;;;;;5081541;28;20048;-83
2022/12/09 06:48:38;;;;;;;23.33;11.70;;;;;;;;;;5049702;28;20036;-83
2022/12/09 06:51:04;;;;;;;24.73;10.75;;;;;;;;;;5062311;28;20517;-83
2022/12/09 06:53:30;;;;;;;22.65;10.85;;;;;;;;;;5056811;28;20112;-82
2022/12/09 06:56:00;;;;;;;22.77;11.52;;;;;;;;;;5065923;28;20028;-85
2022/12/09 06:58:26;;;;;;;20.40;9.85;;;;;;;;;;5077004;28;20024;-83
2022/12/09 07:00:52;;;;;;;21.50;10.85;;;;;;;;;;5056646;28;20159;-84
2022/12/09 07:03:18;;;;;;;19.45;8.88;;;;;;;;;;5070355;28;20048;-83
2022/12/09 07:05:44;;;;;;;25.88;10.98;;;;;;;;;;5065542;28;20407;-84
2022/12/09 07:08:10;;;;;;;21.88;9.57;;;;;;;;;;5061802;28;20028;-83
2022/12/09 07:10:36;;;;;;;21.35;9.70;;;;;;;;;;5059342;28;20028;-83
2022/12/09 07:13:02;;;;;;;24.98;11.43;;;;;;;;;;5048680;28;20029;-83
2022/12/09 07:15:28;;;;;;;19.30;10.05;;;;;;;;;;5064669;28;20034;-84
2022/12/09 07:17:54;;;;;;;26.50;11.02;;;;;;;;;;5072011;28;20017;-84
2022/12/09 07:20:20;;;;;;;21.38;9.07;;;;;;;;;;5060349;28;20025;-84
2022/12/09 07:22:46;;;;;;;22.02;11.30;;;;;;;;;;5045938;28;20029;-86
2022/12/09 07:25:12;;;;;;;21.70;10.25;;;;;;;;;;5043178;28;20032;-83
2022/12/09 07:27:39;;;;;;;23.77;10.68;;;;;;;;;;5068542;28;20368;-84
2022/12/09 07:30:05;;;;;;;22.40;10.98;;;;;;;;;;5062076;28;20044;-84
2022/12/09 07:32:31;;;;;;;23.10;10.85;;;;;;;;;;5049644;28;20033;-83
2022/12/09 07:34:57;;;;;;;22.75;10.45;;;;;;;;;;5065055;28;20035;-83
2022/12/09 07:37:23;;;;;;;24.88;12.23;;;;;;;;;;5046162;28;20054;-83
2022/12/09 07:39:49;;;;;;;30.13;11.90;;;;;;;;;;5061343;28;20542;-84
2022/12/09 07:42:16;;;;;;;26.08;11.77;;;;;;;;;;5061087;28;20109;-84
2022/12/09 07:44:41;;;;;;;22.60;11.13;;;;;;;;;;5062940;28;20024;-83
2022/12/09 07:47:07;;;;;;;22.65;10.80;;;;;;;;;;5072402;28;20045;-84
2022/12/09 07:49:33;;;;;;;23.42;11.30;;;;;;;;;;5044955;28;20029;-84
2022/12/09 07:51:59;;;;;;;25.90;10.75;;;;;;;;;;5051724;28;20028;-83
2022/12/09 07:54:25;;;;;;;23.10;10.60;;;;;;;;;;5076294;28;20036;-84
2022/12/09 07:56:52;;;;;;;25.05;11.50;;;;;;;;;;5058221;28;20530;-85
2022/12/09 07:59:18;;;;;;;26.33;11.65;;;;;;;;;;5057134;28;20058;-84
2022/12/09 08:01:44;;;;;;;24.20;11.07;;;;;;;;;;5062076;28;20035;-84
2022/12/09 08:04:10;;;;;;;30.23;13.98;;;;;;;;;;5082053;28;20055;-84
2022/12/09 08:06:36;;;;;;;23.20;11.05;;;;;;;;;;5068303;28;20056;-84
2022/12/09 08:09:04;;;;;;;29.35;14.05;;;;;;;;;;5062013;28;20021;-83
2022/12/09 08:11:31;;;;;;;24.67;11.40;;;;;;;;;;5062177;28;20024;-84
2022/12/09 08:14:01;;;;;;;27.05;11.05;;;;;;;;;;5063868;28;20088;-84
2022/12/09 08:16:27;;;;;;;27.92;13.25;;;;;;;;;;5070513;28;20021;-84
2022/12/09 08:18:54;;;;;;;25.42;12.10;;;;;;;;;;5062598;28;20060;-83
2022/12/09 08:21:23;;;;;;;24.92;12.35;;;;;;;;;;5069537;28;20055;-84
2022/12/09 08:23:49;;;;;;;22.85;12.18;;;;;;;;;;5082907;28;20470;-83
2022/12/09 08:26:16;;;;;;;29.88;12.25;;;;;;;;;;5055259;28;20493;-84
2022/12/09 08:28:42;;;;;;;28.50;12.68;;;;;;;;;;5081390;28;20036;-83
2022/12/09 08:31:10;;;;;;;25.67;12.88;;;;;;;;;;5064803;28;20028;-83
2022/12/09 08:33:36;;;;;;;32.55;16.20;;;;;;;;;;5059786;28;20017;-83
2022/12/09 08:36:03;;;;;;;26.73;12.27;;;;;;;;;;5072972;28;20485;-84
2022/12/09 08:38:30;;;;;;;26.77;12.60;;;;;;;;;;5076346;28;20063;-83
2022/12/09 08:40:57;;;;;;;27.33;13.13;;;;;;;;;;5054694;28;20021;-83
2022/12/09 08:43:23;;;;;;;30.17;13.07;;;;;;;;;;5064172;28;20020;-83
2022/12/09 08:45:49;;;;;;;29.25;13.23;;;;;;;;;;5052761;28;20048;-84
2022/12/09 08:48:15;;;;;;;27.95;14.63;;;;;;;;;;5059215;28;20033;-83
2022/12/09 08:50:41;;;;;;;34.72;14.68;;;;;;;;;;5063960;28;20036;-83
2022/12/09 08:53:07;;;;;;;29.90;13.80;;;;;;;;;;5064271;28;20031;-83
2022/12/09 08:55:37;;;;;;;33.42;14.98;;;;;;;;;;5056961;28;20043;-83
2022/12/09 08:58:03;;;;;;;33.47;16.20;;;;;;;;;;5063558;28;20032;-83
2022/12/09 09:00:29;;;;;;;34.78;17.17;;;;;;;;;;5080861;28;20471;-85
2022/12/09 09:02:55;;;;;;;34.65;17.13;;;;;;;;;;5056607;28;20028;-83
2022/12/09 09:05:21;;;;;;;42.33;15.23;;;;;;;;;;5081322;28;20025;-83
2022/12/09 09:07:47;;;;;;;37.92;17.20;;;;;;;;;;5080982;28;20055;-84
2022/12/09 09:10:14;;;;;;;34.30;15.68;;;;;;;;;;5073006;28;20029;-83
2022/12/09 09:12:40;;;;;;;33.15;13.60;;;;;;;;;;5071277;28;20614;-83
2022/12/09 09:15:06;;;;;;;34.65;14.38;;;;;;;;;;5061682;28;20436;-84
2022/12/09 09:17:32;;;;;;;39.17;17.17;;;;;;;;;;5081574;28;20063;-83
2022/12/09 09:19:58;;;;;;;36.53;14.82;;;;;;;;;;5080826;28;20052;-83
2022/12/09 09:22:25;;;;;;;36.35;16.52;;;;;;;;;;5070277;28;20021;-83
2022/12/09 09:24:52;;;;;;;34.95;15.45;;;;;;;;;;5084224;28;20029;-84
2022/12/09 09:27:19;;;;;;;41.67;16.92;;;;;;;;;;5067779;28;20008;-84
2022/12/09 09:29:45;;;;;;;33.15;16.02;;;;;;;;;;5075126;28;20032;-83
2022/12/09 09:32:11;;;;;;;33.85;16.15;;;;;;;;;;5097775;28;20025;-84
2022/12/09 09:34:37;;;;;;;33.58;15.85;;;;;;;;;;5059391;28;20025;-84
2022/12/09 09:37:03;;;;;;;42.30;16.45;;;;;;;;;;5071782;28;20340;-84
2022/12/09 09:39:29;;;;;;;39.13;17.27;;;;;;;;;;5067636;28;20494;-83
2022/12/09 09:41:56;;;;;;;41.28;17.00;;;;;;;;;;5074637;28;20024;-84
2022/12/09 09:44:22;;;;;;;35.08;15.90;;;;;;;;;;5063541;28;20040;-84
2022/12/09 09:46:49;;;;;;;38.70;17.10;;;;;;;;;;5068968;28;20040;-84
2022/12/09 09:49:25;;;;;;;34.03;15.95;;;;;;;;;;5067126;28;20558;-84
2022/12/09 09:51:51;;;;;;;35.50;17.45;;;;;;;;;;5058192;28;20024;-84
2022/12/09 09:54:18;;;;;;;37.53;18.52;;;;;;;;;;5067030;28;20029;-83
2022/12/09 09:56:52;;;;;;;29.63;13.63;;;;;;;;;;5056277;28;20180;-85
2022/12/09 09:59:36;;;;;;;31.48;15.40;;;;;;;;;;5050659;28;20048;-85
2022/12/09 10:02:12;;;;;;;26.80;14.23;;;;;;;;;;5046617;28;20025;-84
2022/12/09 10:04:44;;;;;;;32.00;16.33;;;;;;;;;;5064691;28;20025;-85
2022/12/09 10:07:15;;;;;;;31.23;15.65;;;;;;;;;;5066065;28;20096;-84
2022/12/09 10:09:44;;;;;;;29.55;13.85;;;;;;;;;;5059340;28;20096;-85
2022/12/09 10:12:17;;;;;;;25.30;12.48;;;;;;;;;;5063375;28;20024;-84
2022/12/09 10:14:48;;;;;;;28.10;13.85;;;;;;;;;;5052155;28;20088;-83
2022/12/09 10:17:40;;;;;;;25.98;13.30;;;;;;;;;;5073036;28;20029;-84
2022/12/09 10:20:10;;;;;;;31.92;15.10;;;;;;;;;;4999695;28;20041;-86
2022/12/09 10:22:46;;;;;;;29.17;14.30;;;;;;;;;;4979079;28;20042;-86
2022/12/09 10:25:20;;;;;;;29.75;13.95;;;;;;;;;;4986735;28;20022;-85
2022/12/09 10:27:50;;;;;;;34.22;15.18;;;;;;;;;;4980906;28;20163;-85
2022/12/09 10:30:17;;;;;;;32.00;14.70;;;;;;;;;;4969457;28;20034;-85
2022/12/09 10:32:43;;;;;;;29.55;14.98;;;;;;;;;;4999435;28;20034;-86
2022/12/09 10:35:16;;;;;;;29.88;13.18;;;;;;;;;;4974136;28;20034;-84
2022/12/09 10:37:42;;;;;;;34.08;15.43;;;;;;;;;;4979620;28;20070;-85
2022/12/09 10:40:11;;;;;;;32.35;15.13;;;;;;;;;;4975054;28;20018;-86
2022/12/09 10:46:01;;;;;;;32.58;14.50;;;;;;;;;;4993442;28;20059;-86
2022/12/09 10:48:36;;;;;;;29.42;13.02;;;;;;;;;;4985540;28;20108;-86
2022/12/09 10:51:22;;;;;;;29.23;13.60;;;;;;;;;;4974320;28;20065;-85
2022/12/09 10:53:57;;;;;;;31.33;13.35;;;;;;;;;;4983789;28;20042;-86
2022/12/09 10:56:26;;;;;;;27.70;13.77;;;;;;;;;;5000537;28;20041;-86
2022/12/09 10:59:07;;;;;;;28.13;13.15;;;;;;;;;;5043338;28;20101;-86
2022/12/09 11:01:52;;;;;;;21.35;11.50;;;;;;;;;;5047926;28;20367;-86
2022/12/09 11:04:22;;;;;;;21.73;10.50;;;;;;;;;;5075584;28;20021;-86
2022/12/09 11:06:58;;;;;;;20.27;9.95;;;;;;;;;;5060022;28;20028;-86
2022/12/09 11:09:27;;;;;;;19.83;11.35;;;;;;;;;;5041727;28;21214;-85
2022/12/09 11:11:53;;;;;;;18.05;9.50;;;;;;;;;;5056168;28;20029;-89
2022/12/09 11:14:22;;;;;;;18.88;9.60;;;;;;;;;;5058185;28;20183;-86
2022/12/09 11:16:49;;;;;;;17.95;8.63;;;;;;;;;;5064422;28;20029;-86
2022/12/09 11:19:15;;;;;;;18.40;8.77;;;;;;;;;;5072585;28;20029;-85
2022/12/09 11:21:42;;;;;;;19.42;10.50;;;;;;;;;;5040781;28;20029;-85
2022/12/09 11:24:19;;;;;;;18.77;10.40;;;;;;;;;;5056149;28;20017;-86
2022/12/09 11:26:45;;;;;;;19.58;9.57;;;;;;;;;;5056654;28;20062;-85
2022/12/09 11:29:18;;;;;;;19.10;8.27;;;;;;;;;;5049821;28;20033;-85
2022/12/09 11:31:44;;;;;;;21.65;10.18;;;;;;;;;;5043924;28;20032;-85
2022/12/09 11:34:19;;;;;;;18.27;9.60;;;;;;;;;;5057312;28;20099;-86
2022/12/09 11:36:50;;;;;;;20.73;9.25;;;;;;;;;;5050564;28;20234;-85
2022/12/09 11:39:22;;;;;;;18.65;9.05;;;;;;;;;;5046008;28;20033;-87
2022/12/09 11:44:36;;;;;;;17.83;9.10;;;;;;;;;;5074764;28;20039;-85
2022/12/09 11:47:13;;;;;;;17.52;9.35;;;;;;;;;;5048274;28;20048;-87
2022/12/09 11:49:45;;;;;;;17.23;9.57;;;;;;;;;;5045390;28;20050;-87
2022/12/09 11:52:17;;;;;;;19.60;9.90;;;;;;;;;;5058263;28;20078;-84
2022/12/09 11:54:56;;;;;;;15.55;8.60;;;;;;;;;;5045427;28;20040;-85
2022/12/09 11:57:30;;;;;;;17.55;8.73;;;;;;;;;;5060710;28;20047;-86
2022/12/09 11:59:59;;;;;;;16.90;8.85;;;;;;;;;;5059890;28;20047;-85
2022/12/09 12:02:25;;;;;;;19.20;9.85;;;;;;;;;;5073876;28;20029;-86
2022/12/09 12:05:00;;;;;;;18.92;8.95;;;;;;;;;;5041442;28;20051;-85
2022/12/09 12:07:39;;;;;;;16.75;8.48;;;;;;;;;;5059173;28;20017;-85
2022/12/09 12:10:09;;;;;;;20.75;9.73;;;;;;;;;;5053856;28;20051;-86
2022/12/09 12:12:50;;;;;;;17.08;9.32;;;;;;;;;;5065004;28;20025;-86
2022/12/09 12:15:22;;;;;;;19.40;10.98;;;;;;;;;;5057237;28;20036;-86
2022/12/09 12:17:58;;;;;;;21.35;11.20;;;;;;;;;;5057652;28;20274;-86
2022/12/09 12:20:27;;;;;;;22.20;10.68;;;;;;;;;;5050220;28;20025;-85
2022/12/09 12:22:54;;;;;;;19.55;9.40;;;;;;;;;;5065491;28;20020;-86
2022/12/09 12:25:20;;;;;;;19.13;9.73;;;;;;;;;;5051992;28;20075;-86
2022/12/09 12:27:46;;;;;;;20.80;9.95;;;;;;;;;;5059046;28;20032;-87
2022/12/09 12:30:14;;;;;;;21.92;10.45;;;;;;;;;;5046965;28;20594;-86
2022/12/09 12:32:52;;;;;;;23.13;11.23;;;;;;;;;;5039716;28;20032;-86
2022/12/09 12:35:27;;;;;;;19.40;9.60;;;;;;;;;;5042540;28;20029;-86
2022/12/09 12:38:12;;;;;;;20.65;10.02;;;;;;;;;;5046185;28;20044;-86
2022/12/09 12:40:50;;;;;;;19.63;9.57;;;;;;;;;;5066699;28;20094;-86
2022/12/09 12:49:34;;;;;;;24.67;11.00;;;;;;;;;;5076209;28;20067;-87
2022/12/09 12:52:09;;;;;;;26.25;11.48;;;;;;;;;;5048651;28;20391;-85
2022/12/09 12:54:38;;;;;;;22.10;10.25;;;;;;;;;;5075154;28;20487;-84
2022/12/09 12:57:20;;;;;;;19.27;9.98;;;;;;;;;;5076914;28;20031;-84
2022/12/09 12:59:52;;;;;;;20.25;10.45;;;;;;;;;;5080252;28;20070;-86
2022/12/09 13:02:24;;;;;;;22.90;9.95;;;;;;;;;;5069912;28;20120;-86
2022/12/09 13:05:13;;;;;;;17.40;10.52;;;;;;;;;;5065554;28;20032;-86
2022/12/09 13:07:42;;;;;;;19.20;9.25;;;;;;;;;;5066176;28;20065;-85
2022/12/09 13:10:20;;;;;;;19.02;9.32;;;;;;;;;;5044899;28;20088;-85
2022/12/09 13:12:54;;;;;;;18.13;9.13;;;;;;;;;;5051634;28;20052;-86
2022/12/09 13:15:31;;;;;;;13.98;8.23;;;;;;;;;;5054205;28;20029;-86
2022/12/09 13:18:00;;;;;;;14.38;8.27;;;;;;;;;;5070979;28;20029;-87
2022/12/09 13:20:33;;;;;;;16.10;8.90;;;;;;;;;;5044276;28;20020;-87
2022/12/09 13:23:15;;;;;;;16.13;9.02;;;;;;;;;;5043166;28;20031;-88
2022/12/09 13:25:49;;;;;;;17.97;10.23;;;;;;;;;;5043410;28;20033;-87
2022/12/09 13:28:34;;;;;;;17.65;9.82;;;;;;;;;;5050844;28;20275;-86
2022/12/09 13:31:00;;;;;;;15.80;9.43;;;;;;;;;;5050106;28;20615;-85
2022/12/09 13:33:29;;;;;;;13.38;7.30;;;;;;;;;;5064975;28;20020;-86
2022/12/09 13:35:55;;;;;;;13.88;8.43;;;;;;;;;;5086256;28;20028;-84
2022/12/09 13:38:41;;;;;;;14.20;7.53;;;;;;;;;;5085284;28;20035;-85
2022/12/09 13:41:26;;;;;;;18.70;9.73;;;;;;;;;;5082742;28;20027;-84
2022/12/09 13:43:56;;;;;;;16.52;8.25;;;;;;;;;;5060459;28;20515;-85
2022/12/09 13:46:23;;;;;;;16.27;8.73;;;;;;;;;;5065497;28;20508;-84
2022/12/09 13:48:50;;;;;;;17.25;9.52;;;;;;;;;;5067199;28;20055;-83
2022/12/09 13:51:17;;;;;;;15.20;7.63;;;;;;;;;;5063559;28;20029;-83
2022/12/09 13:53:46;;;;;;;13.93;8.45;;;;;;;;;;5076627;28;20100;-83
2022/12/09 13:56:18;;;;;;;13.40;7.07;;;;;;;;;;5045772;28;20478;-82
2022/12/09 13:58:47;;;;;;;14.73;7.45;;;;;;;;;;5048641;28;20028;-83
2022/12/09 14:01:18;;;;;;;13.73;7.43;;;;;;;;;;5082864;28;20025;-83
2022/12/09 14:03:55;;;;;;;15.02;7.60;;;;;;;;;;5083021;28;20470;-82
2022/12/09 14:06:28;;;;;;;14.63;7.68;;;;;;;;;;5071001;28;20052;-80
2022/12/09 14:08:57;;;;;;;15.43;8.25;;;;;;;;;;5083351;28;20037;-82
2022/12/09 14:11:38;;;;;;;14.43;8.07;;;;;;;;;;5084612;28;20029;-81
2022/12/09 14:14:22;;;;;;;11.65;6.50;;;;;;;;;;5084430;28;20021;-83
2022/12/09 14:16:49;;;;;;;13.57;7.90;;;;;;;;;;5062897;28;20029;-82
2022/12/09 14:19:35;;;;;;;13.90;7.78;;;;;;;;;;5065298;28;20076;-82
2022/12/09 14:22:19;;;;;;;14.23;7.47;;;;;;;;;;5061255;28;20031;-83
2022/12/09 14:24:48;;;;;;;14.02;7.80;;;;;;;;;;5066448;28;20032;-83
2022/12/09 14:27:16;;;;;;;12.07;6.80;;;;;;;;;;5064826;28;20039;-85
2022/12/09 14:29:42;;;;;;;14.23;7.65;;;;;;;;;;5083268;28;20028;-84
2022/12/09 14:32:27;;;;;;;15.25;7.57;;;;;;;;;;5079566;28;20080;-85
2022/12/09 14:35:09;;;;;;;11.73;6.85;;;;;;;;;;5054926;28;20051;-84
2022/12/09 14:37:35;;;;;;;16.75;7.72;;;;;;;;;;5051791;28;20120;-84
2022/12/09 14:40:01;;;;;;;12.52;6.63;;;;;;;;;;5082752;28;20497;-83
2022/12/09 14:42:40;;;;;;;13.88;7.88;;;;;;;;;;5050041;28;20025;-83